aviador You're here:

KCVW Decoded Metar

in
Report Time2018-02-25 15:00:00
UTC Time2018-02-25 15:17:18
Flight Rules mvfr MVFR
Wind090° at 12 kt
W.Rank090° ranks 21
Current wind is above 090° avg. (7.3)
Visibility9999 m
Phenomena:N/A
Clouds:Broken 013 Hf
Broken 018 Hf
Broken 022 Hf
Ceiling1,300 ft
Temp18°C
Dew Point18°C (100% RH)
AAT16.5°C
QNH1017 hPa
Raw Report
KCVW 251500Z AUTO 09012KT 10SM BKN013 BKN018 BKN022 18/18 A3002
RMK A01=

Extra information for KCVW:More info

Social comments